マドリード/バラハス の空港の天気 - METARとTAF

マドリード・バラハス国際空港 ( LEMD / MAD ) - スペイン マドリード
飛行場実況気象(Metar)
観測時間05/30 21:00 CEST (05/30 19:00 UTC)
風向・風速南東 2m/s
視程10km以上
天気現象
なし
気温29℃
湿度25%
気圧1011hPa
METARLEMD 301900Z 13003KT 100V180 CAVOK 29/07 Q1011 NOSIG
過去の天気等 Google飛行場航空写真 Wunderground天気予報

過去48時間のMETAR

飛行場予報(TAF)
発表時間: 5/30 19:00 CEST (5/30 17:00 UTC)
予報対象時間: 30日20時 CEST ~ 1日2時 CEST
風向・風速不定 3m/s
視程10km以上
なし
30日20時 CEST ~ 30日22時 CEST に 確率 30% で一時的に
風向・風速南南西 5m/s
少しの塔状積雲 雲底高度 910m
31日13時 CEST ~ 31日22時 CEST に 確率 40% で一時的に
少しの塔状積雲 雲底高度 910m
31日16時 CEST ~ 31日22時 CEST に 確率 30% で一時的に
風向・風速南南西 6m/s
視程3000m
天気現象しゅう雨
全天の4割程度の塔状積雲 雲底高度 910m
TAF LEMD 301700Z 3018/3124 VRB05KT CAVOK TX32/3116Z TN13/3106Z
PROB30 TEMPO 3018/3020 20010KT FEW030TCU
PROB40 TEMPO 3111/3120 FEW030TCU
PROB30 TEMPO 3114/3120 20012KT 3000 SHRA SCT030TCU